sensor_id;sensor_type;location;lat;lon;timestamp;P1;durP1;ratioP1;P2;durP2;ratioP2
51090;SDS011;37136;43.614;3.908;2022-11-28T15:05:29;3.30;;;1.80;;
51090;SDS011;37136;43.614;3.908;2022-11-28T15:18:05;11.23;;;2.97;;
51090;SDS011;37136;43.614;3.908;2022-11-28T15:20:36;3.90;;;1.50;;
51090;SDS011;37136;43.614;3.908;2022-11-28T15:23:20;3.28;;;2.10;;
51090;SDS011;37136;43.614;3.908;2022-11-28T15:25:50;3.88;;;1.90;;
51090;SDS011;37136;43.614;3.908;2022-11-28T15:28:19;2.67;;;2.17;;
51090;SDS011;37136;43.614;3.908;2022-11-28T15:30:46;1.98;;;1.60;;
51090;SDS011;37136;43.614;3.908;2022-11-28T15:33:14;2.67;;;1.90;;
51090;SDS011;37136;43.614;3.908;2022-11-28T15:36:02;5.45;;;2.45;;
51090;SDS011;37136;43.614;3.908;2022-11-28T15:38:28;4.63;;;1.77;;
51090;SDS011;37136;43.614;3.908;2022-11-28T15:40:55;2.78;;;1.70;;
51090;SDS011;37136;43.614;3.908;2022-11-28T15:43:22;4.35;;;2.50;;
51090;SDS011;37136;43.614;3.908;2022-11-28T15:45:53;3.05;;;2.40;;
51090;SDS011;37136;43.614;3.908;2022-11-28T15:50:52;3.75;;;2.55;;
51090;SDS011;37136;43.614;3.908;2022-11-28T15:53:19;4.75;;;2.35;;
51090;SDS011;37136;43.614;3.908;2022-11-28T15:55:45;2.88;;;1.95;;
51090;SDS011;37136;43.614;3.908;2022-11-28T15:58:19;3.65;;;2.47;;
51090;SDS011;37136;43.614;3.908;2022-11-28T16:00:47;2.45;;;2.00;;
51090;SDS011;37136;43.614;3.908;2022-11-28T16:03:18;4.20;;;2.42;;
51090;SDS011;37136;43.614;3.908;2022-11-28T16:05:45;4.55;;;3.25;;
51090;SDS011;37136;43.614;3.908;2022-11-28T16:08:46;26.70;;;12.43;;
51090;SDS011;37136;43.614;3.908;2022-11-28T16:11:05;4.55;;;2.80;;
51090;SDS011;37136;43.614;3.908;2022-11-28T16:13:32;4.75;;;3.42;;
51090;SDS011;37136;43.614;3.908;2022-11-28T16:15:58;4.38;;;2.53;;
51090;SDS011;37136;43.614;3.908;2022-11-28T16:18:28;7.45;;;4.05;;
51090;SDS011;37136;43.614;3.908;2022-11-28T16:20:55;6.38;;;3.95;;
51090;SDS011;37136;43.614;3.908;2022-11-28T16:23:27;5.80;;;3.60;;
51090;SDS011;37136;43.614;3.908;2022-11-28T16:25:58;6.05;;;3.17;;
51090;SDS011;37136;43.614;3.908;2022-11-28T16:28:35;2.72;;;2.47;;
51090;SDS011;37136;43.614;3.908;2022-11-28T16:31:08;4.70;;;2.70;;
51090;SDS011;37136;43.614;3.908;2022-11-28T16:33:42;5.53;;;3.40;;
51090;SDS011;37136;43.614;3.908;2022-11-28T16:38:35;6.93;;;3.55;;
51090;SDS011;37136;43.614;3.908;2022-11-28T16:41:01;5.43;;;4.00;;
51090;SDS011;37136;43.614;3.908;2022-11-28T16:46:00;4.95;;;3.97;;
51090;SDS011;37136;43.614;3.908;2022-11-28T16:48:28;5.97;;;4.18;;
51090;SDS011;37136;43.614;3.908;2022-11-28T16:56:25;5.15;;;4.32;;
51090;SDS011;37136;43.614;3.908;2022-11-28T17:01:36;10.35;;;4.53;;
51090;SDS011;37136;43.614;3.908;2022-11-28T17:04:03;7.30;;;4.75;;
51090;SDS011;37136;43.614;3.908;2022-11-28T17:06:34;8.13;;;5.28;;
51090;SDS011;37136;43.614;3.908;2022-11-28T17:09:04;6.80;;;5.28;;
51090;SDS011;37136;43.614;3.908;2022-11-28T17:11:32;7.30;;;5.20;;
51090;SDS011;37136;43.614;3.908;2022-11-28T17:13:59;7.38;;;5.13;;
51090;SDS011;37136;43.614;3.908;2022-11-28T17:16:28;7.20;;;5.55;;
51090;SDS011;37136;43.614;3.908;2022-11-28T17:18:54;7.03;;;5.57;;
51090;SDS011;37136;43.614;3.908;2022-11-28T17:21:33;7.72;;;6.15;;
51090;SDS011;37136;43.614;3.908;2022-11-28T17:23:59;13.75;;;8.35;;
51090;SDS011;37136;43.614;3.908;2022-11-28T17:26:25;25.73;;;15.50;;
51090;SDS011;37136;43.614;3.908;2022-11-28T17:28:52;24.23;;;16.75;;
51090;SDS011;37136;43.614;3.908;2022-11-28T17:31:18;22.52;;;15.35;;
51090;SDS011;37136;43.614;3.908;2022-11-28T17:33:44;20.60;;;14.75;;
51090;SDS011;37136;43.614;3.908;2022-11-28T17:36:11;16.50;;;11.20;;
51090;SDS011;37136;43.614;3.908;2022-11-28T17:38:37;17.23;;;10.02;;
51090;SDS011;37136;43.614;3.908;2022-11-28T17:41:03;12.48;;;9.82;;
51090;SDS011;37136;43.614;3.908;2022-11-28T17:43:30;13.32;;;8.25;;
51090;SDS011;37136;43.614;3.908;2022-11-28T17:45:56;12.20;;;9.15;;
51090;SDS011;37136;43.614;3.908;2022-11-28T17:48:22;10.43;;;7.93;;
51090;SDS011;37136;43.614;3.908;2022-11-28T17:50:49;10.02;;;7.45;;
51090;SDS011;37136;43.614;3.908;2022-11-28T17:53:17;10.30;;;7.55;;
51090;SDS011;37136;43.614;3.908;2022-11-28T17:55:45;10.55;;;7.70;;
51090;SDS011;37136;43.614;3.908;2022-11-28T17:58:15;12.25;;;8.07;;
51090;SDS011;37136;43.614;3.908;2022-11-28T18:00:42;13.02;;;8.90;;
51090;SDS011;37136;43.614;3.908;2022-11-28T18:03:09;13.15;;;8.68;;
51090;SDS011;37136;43.614;3.908;2022-11-28T18:05:45;11.93;;;8.57;;
51090;SDS011;37136;43.614;3.908;2022-11-28T18:08:12;14.30;;;9.52;;
51090;SDS011;37136;43.614;3.908;2022-11-28T18:10:38;12.60;;;9.57;;
51090;SDS011;37136;43.614;3.908;2022-11-28T18:13:05;14.57;;;9.45;;
51090;SDS011;37136;43.614;3.908;2022-11-28T18:15:31;12.40;;;10.18;;
51090;SDS011;37136;43.614;3.908;2022-11-28T18:18:00;18.10;;;12.27;;
51090;SDS011;37136;43.614;3.908;2022-11-28T18:20:26;15.13;;;11.40;;
51090;SDS011;37136;43.614;3.908;2022-11-28T18:22:54;19.90;;;12.98;;
51090;SDS011;37136;43.614;3.908;2022-11-28T18:25:20;18.50;;;13.20;;
51090;SDS011;37136;43.614;3.908;2022-11-28T18:27:47;24.90;;;12.95;;
51090;SDS011;37136;43.614;3.908;2022-11-28T18:30:13;20.10;;;12.73;;
51090;SDS011;37136;43.614;3.908;2022-11-28T18:32:40;17.73;;;12.05;;
51090;SDS011;37136;43.614;3.908;2022-11-28T18:35:06;18.27;;;13.32;;
51090;SDS011;37136;43.614;3.908;2022-11-28T18:37:33;21.83;;;15.80;;
51090;SDS011;37136;43.614;3.908;2022-11-28T18:40:00;17.70;;;14.18;;
51090;SDS011;37136;43.614;3.908;2022-11-28T18:42:26;20.58;;;14.13;;
51090;SDS011;37136;43.614;3.908;2022-11-28T18:44:52;20.80;;;15.63;;
51090;SDS011;37136;43.614;3.908;2022-11-28T18:47:19;20.67;;;14.65;;
51090;SDS011;37136;43.614;3.908;2022-11-28T18:49:45;20.30;;;14.57;;
51090;SDS011;37136;43.614;3.908;2022-11-28T18:52:11;18.08;;;13.60;;
51090;SDS011;37136;43.614;3.908;2022-11-28T18:54:38;18.25;;;13.40;;
51090;SDS011;37136;43.614;3.908;2022-11-28T18:57:07;19.17;;;14.50;;
51090;SDS011;37136;43.614;3.908;2022-11-28T18:59:34;22.58;;;14.63;;
51090;SDS011;37136;43.614;3.908;2022-11-28T19:02:00;20.20;;;14.23;;
51090;SDS011;37136;43.614;3.908;2022-11-28T19:04:26;27.13;;;17.23;;
51090;SDS011;37136;43.614;3.908;2022-11-28T19:06:53;21.45;;;15.25;;
51090;SDS011;37136;43.614;3.908;2022-11-28T19:09:19;22.33;;;16.20;;
51090;SDS011;37136;43.614;3.908;2022-11-28T19:11:47;19.88;;;15.48;;
51090;SDS011;37136;43.614;3.908;2022-11-28T19:14:14;19.30;;;15.40;;
51090;SDS011;37136;43.614;3.908;2022-11-28T19:16:40;21.58;;;16.23;;
51090;SDS011;37136;43.614;3.908;2022-11-28T19:19:08;22.10;;;16.42;;
51090;SDS011;37136;43.614;3.908;2022-11-28T19:21:35;22.70;;;16.70;;
51090;SDS011;37136;43.614;3.908;2022-11-28T19:24:02;23.90;;;17.38;;
51090;SDS011;37136;43.614;3.908;2022-11-28T19:26:29;23.85;;;16.55;;
51090;SDS011;37136;43.614;3.908;2022-11-28T19:28:58;21.67;;;15.20;;
51090;SDS011;37136;43.614;3.908;2022-11-28T19:31:28;20.55;;;15.32;;
51090;SDS011;37136;43.614;3.908;2022-11-28T19:33:58;18.25;;;14.45;;
51090;SDS011;37136;43.614;3.908;2022-11-28T19:36:24;19.80;;;15.60;;
51090;SDS011;37136;43.614;3.908;2022-11-28T19:38:51;24.92;;;17.70;;
51090;SDS011;37136;43.614;3.908;2022-11-28T19:41:18;23.23;;;17.73;;
51090;SDS011;37136;43.614;3.908;2022-11-28T19:43:45;23.58;;;16.73;;
51090;SDS011;37136;43.614;3.908;2022-11-28T19:46:12;22.52;;;15.98;;
51090;SDS011;37136;43.614;3.908;2022-11-28T19:48:39;24.05;;;16.05;;
51090;SDS011;37136;43.614;3.908;2022-11-28T19:51:06;24.58;;;16.08;;
51090;SDS011;37136;43.614;3.908;2022-11-28T19:53:33;21.52;;;16.10;;
51090;SDS011;37136;43.614;3.908;2022-11-28T19:56:03;22.27;;;16.30;;
51090;SDS011;37136;43.614;3.908;2022-11-28T19:58:30;19.75;;;16.15;;
51090;SDS011;37136;43.614;3.908;2022-11-28T20:03:41;23.75;;;18.88;;
51090;SDS011;37136;43.614;3.908;2022-11-28T20:06:21;38.45;;;27.63;;
51090;SDS011;37136;43.614;3.908;2022-11-28T20:08:48;45.13;;;31.77;;
51090;SDS011;37136;43.614;3.908;2022-11-28T20:11:19;40.70;;;30.33;;
51090;SDS011;37136;43.614;3.908;2022-11-28T20:13:46;44.45;;;31.30;;
51090;SDS011;37136;43.614;3.908;2022-11-28T20:16:14;45.15;;;29.45;;
51090;SDS011;37136;43.614;3.908;2022-11-28T20:18:41;42.05;;;28.30;;
51090;SDS011;37136;43.614;3.908;2022-11-28T20:21:09;37.38;;;25.67;;
51090;SDS011;37136;43.614;3.908;2022-11-28T20:23:54;37.08;;;24.55;;
51090;SDS011;37136;43.614;3.908;2022-11-28T20:26:22;34.90;;;23.88;;
51090;SDS011;37136;43.614;3.908;2022-11-28T20:28:51;29.90;;;21.67;;
51090;SDS011;37136;43.614;3.908;2022-11-28T20:31:19;30.20;;;20.08;;
51090;SDS011;37136;43.614;3.908;2022-11-28T20:33:45;26.48;;;18.38;;
51090;SDS011;37136;43.614;3.908;2022-11-28T20:36:15;27.17;;;19.13;;
51090;SDS011;37136;43.614;3.908;2022-11-28T20:38:41;25.23;;;18.33;;
51090;SDS011;37136;43.614;3.908;2022-11-28T20:41:09;29.70;;;20.48;;
51090;SDS011;37136;43.614;3.908;2022-11-28T20:43:36;27.52;;;20.80;;
51090;SDS011;37136;43.614;3.908;2022-11-28T20:46:04;26.45;;;20.38;;
51090;SDS011;37136;43.614;3.908;2022-11-28T20:48:30;30.95;;;22.10;;
51090;SDS011;37136;43.614;3.908;2022-11-28T20:50:57;29.85;;;21.27;;
51090;SDS011;37136;43.614;3.908;2022-11-28T20:53:23;30.58;;;22.60;;
51090;SDS011;37136;43.614;3.908;2022-11-28T20:55:56;32.47;;;22.15;;
51090;SDS011;37136;43.614;3.908;2022-11-28T20:58:22;41.40;;;26.13;;
51090;SDS011;37136;43.614;3.908;2022-11-28T21:00:49;37.15;;;27.52;;
51090;SDS011;37136;43.614;3.908;2022-11-28T21:03:15;49.85;;;29.45;;
51090;SDS011;37136;43.614;3.908;2022-11-28T21:05:41;39.53;;;28.08;;
51090;SDS011;37136;43.614;3.908;2022-11-28T21:08:07;40.05;;;26.38;;
51090;SDS011;37136;43.614;3.908;2022-11-28T21:10:33;37.83;;;26.33;;
51090;SDS011;37136;43.614;3.908;2022-11-28T21:12:59;45.10;;;27.25;;
51090;SDS011;37136;43.614;3.908;2022-11-28T21:15:25;39.05;;;24.90;;
51090;SDS011;37136;43.614;3.908;2022-11-28T21:17:51;31.23;;;22.83;;
51090;SDS011;37136;43.614;3.908;2022-11-28T21:20:18;38.63;;;25.15;;
51090;SDS011;37136;43.614;3.908;2022-11-28T21:22:44;31.15;;;22.17;;
51090;SDS011;37136;43.614;3.908;2022-11-28T21:25:10;29.33;;;19.50;;
51090;SDS011;37136;43.614;3.908;2022-11-28T21:27:36;27.92;;;18.60;;
51090;SDS011;37136;43.614;3.908;2022-11-28T21:30:03;28.65;;;18.77;;
51090;SDS011;37136;43.614;3.908;2022-11-28T21:32:29;28.30;;;19.50;;
51090;SDS011;37136;43.614;3.908;2022-11-28T21:34:55;26.60;;;18.70;;
51090;SDS011;37136;43.614;3.908;2022-11-28T21:37:22;24.60;;;16.67;;
51090;SDS011;37136;43.614;3.908;2022-11-28T21:39:48;27.15;;;15.60;;
51090;SDS011;37136;43.614;3.908;2022-11-28T21:42:14;25.88;;;12.65;;
51090;SDS011;37136;43.614;3.908;2022-11-28T21:44:42;20.05;;;12.05;;
51090;SDS011;37136;43.614;3.908;2022-11-28T21:47:08;21.58;;;13.00;;
51090;SDS011;37136;43.614;3.908;2022-11-28T21:49:34;20.08;;;11.73;;
51090;SDS011;37136;43.614;3.908;2022-11-28T21:52:00;21.42;;;11.57;;
51090;SDS011;37136;43.614;3.908;2022-11-28T21:54:26;18.77;;;9.80;;
51090;SDS011;37136;43.614;3.908;2022-11-28T21:56:53;20.95;;;9.05;;
51090;SDS011;37136;43.614;3.908;2022-11-28T21:59:19;19.15;;;11.23;;
51090;SDS011;37136;43.614;3.908;2022-11-28T22:01:46;17.63;;;9.80;;
51090;SDS011;37136;43.614;3.908;2022-11-28T22:04:12;19.60;;;9.20;;
51090;SDS011;37136;43.614;3.908;2022-11-28T22:06:38;17.27;;;8.52;;
51090;SDS011;37136;43.614;3.908;2022-11-28T22:09:04;15.20;;;7.80;;
51090;SDS011;37136;43.614;3.908;2022-11-28T22:11:31;13.18;;;6.32;;
51090;SDS011;37136;43.614;3.908;2022-11-28T22:13:57;10.65;;;5.15;;
51090;SDS011;37136;43.614;3.908;2022-11-28T22:16:25;11.35;;;4.85;;
51090;SDS011;37136;43.614;3.908;2022-11-28T22:18:52;8.98;;;4.50;;
51090;SDS011;37136;43.614;3.908;2022-11-28T22:21:18;11.57;;;4.45;;
51090;SDS011;37136;43.614;3.908;2022-11-28T22:23:45;11.70;;;3.75;;
51090;SDS011;37136;43.614;3.908;2022-11-28T22:26:11;9.30;;;3.20;;
51090;SDS011;37136;43.614;3.908;2022-11-28T22:28:38;7.65;;;3.05;;
51090;SDS011;37136;43.614;3.908;2022-11-28T22:31:06;4.50;;;2.95;;
51090;SDS011;37136;43.614;3.908;2022-11-28T22:33:32;8.10;;;3.78;;
51090;SDS011;37136;43.614;3.908;2022-11-28T22:38:31;4.10;;;2.63;;
51090;SDS011;37136;43.614;3.908;2022-11-28T22:40:57;7.50;;;2.40;;
51090;SDS011;37136;43.614;3.908;2022-11-28T22:43:23;7.55;;;1.90;;
51090;SDS011;37136;43.614;3.908;2022-11-28T22:45:56;5.25;;;1.58;;
51090;SDS011;37136;43.614;3.908;2022-11-28T22:48:23;6.75;;;1.63;;
51090;SDS011;37136;43.614;3.908;2022-11-28T22:50:49;3.45;;;1.02;;
51090;SDS011;37136;43.614;3.908;2022-11-28T22:53:15;3.28;;;1.10;;
51090;SDS011;37136;43.614;3.908;2022-11-28T22:55:41;2.47;;;0.95;;
51090;SDS011;37136;43.614;3.908;2022-11-28T22:58:08;3.60;;;1.75;;
51090;SDS011;37136;43.614;3.908;2022-11-28T23:00:34;1.73;;;0.90;;
51090;SDS011;37136;43.614;3.908;2022-11-28T23:03:01;3.33;;;1.33;;
51090;SDS011;37136;43.614;3.908;2022-11-28T23:05:27;5.85;;;1.45;;
51090;SDS011;37136;43.614;3.908;2022-11-28T23:07:53;3.88;;;1.80;;
51090;SDS011;37136;43.614;3.908;2022-11-28T23:10:20;3.83;;;2.05;;
51090;SDS011;37136;43.614;3.908;2022-11-28T23:12:46;6.10;;;2.45;;
51090;SDS011;37136;43.614;3.908;2022-11-28T23:15:12;4.13;;;2.55;;
51090;SDS011;37136;43.614;3.908;2022-11-28T23:17:39;6.65;;;2.72;;
51090;SDS011;37136;43.614;3.908;2022-11-28T23:20:06;4.72;;;2.00;;
51090;SDS011;37136;43.614;3.908;2022-11-28T23:22:32;2.92;;;1.30;;
51090;SDS011;37136;43.614;3.908;2022-11-28T23:24:59;2.80;;;1.75;;
51090;SDS011;37136;43.614;3.908;2022-11-28T23:27:29;4.75;;;2.53;;
51090;SDS011;37136;43.614;3.908;2022-11-28T23:29:55;1.98;;;0.93;;
51090;SDS011;37136;43.614;3.908;2022-11-28T23:32:21;4.20;;;1.40;;
51090;SDS011;37136;43.614;3.908;2022-11-28T23:34:47;0.93;;;0.70;;
51090;SDS011;37136;43.614;3.908;2022-11-28T23:37:13;1.33;;;0.90;;
51090;SDS011;37136;43.614;3.908;2022-11-28T23:39:39;2.65;;;1.33;;
51090;SDS011;37136;43.614;3.908;2022-11-28T23:42:06;3.38;;;1.17;;
51090;SDS011;37136;43.614;3.908;2022-11-28T23:44:32;3.53;;;1.30;;
51090;SDS011;37136;43.614;3.908;2022-11-28T23:46:58;3.80;;;1.35;;
51090;SDS011;37136;43.614;3.908;2022-11-28T23:49:24;3.00;;;1.40;;
51090;SDS011;37136;43.614;3.908;2022-11-28T23:51:50;3.53;;;1.70;;
51090;SDS011;37136;43.614;3.908;2022-11-28T23:54:16;3.90;;;1.48;;
51090;SDS011;37136;43.614;3.908;2022-11-28T23:56:42;4.10;;;2.00;;
51090;SDS011;37136;43.614;3.908;2022-11-28T23:59:10;4.30;;;1.52;;
